Forestville, CA (95436)

1:18 AM PST on December 11, 2016 (GMT -0800)
Anderson Rd, Forestville CA | | Change Station

Elev 276 ft 38.48 °N, 122.88 °W | Updated 5 seconds ago

Fog
Fog
43.5 °F
Feels Like 44 °F
N
0.0
Wind Variable Wind from NW
Gusts 0.0 mph

Today
High -- | Low -- °F
--% Chance of Precip.
Yesterday
High -- | Low -- °F
Precip. -- in
Pressure 30.15 in
Visibility 0.2 miles
Clouds
Windchill 44 °F
Dew Point 43 °F
Humidity 98%
Rainfall 0.00 in
Snow Depth Not available.
7:19 AM 4:50 PM
Waxing Gibbous, 90% visible
SPECI KSTS 110910Z AUTO 36003KT 1/4SM FG VV001 04/04 A3015 RMK AO2 T00390039
Pressure 30.15 in
Visibility 0.2 miles
Clouds
Windchill 44 °F
Dew Point 43 °F
Humidity 98%
Rainfall 0.00 in
Snow Depth Not available.
7:19 AM 4:50 PM
Waxing Gibbous, 90% visible
SPECI KSTS 110910Z AUTO 36003KT 1/4SM FG VV001 04/04 A3015 RMK AO2 T00390039

10-Day Weather Forecast

Almanac

Astronomy

Dec. 11, 2016 Rise Set
Actual Time
Civil Twilight
Nautical Twilight
Astronomical Twilight
Moon
Length of Visible Light
Length of Day
Tomorrow will be .
, % of the Moon is Illuminated

Today's Extremes

State Highs State Lows

Community

WunderPhotos

Upload Photos

1,956,705 photos uploaded!

WunderBlog® & News

Nearby

Air Quality

  Air Quality AQ Index Pollutant
Not available.

Snow Depth

Station Depth Elevation

Earthquake Activity

City Distance Mag. Time & Date
Minimum magnitude displayed is 2.5.

Coastal Water Temperatures

Place Temperature

Stations

Nearby Weather Stations

Station Location Temp. Windchill Dew Point Humidity Wind Precip. Elev Updated Type
                   

Watches & Warnings

There are currently no watches in effect.